Time;durP1;ratioP1;P1;durP2;ratioP2;P2;SDS_P1;SDS_P2;PMS_P1;PMS_P2;Temp;Humidity;BMP_temperature;BMP_pressure;BME280_temperature;BME280_humidity;BME280_pressure;Samples;Min_cycle;Max_cycle;Signal;HPM_P1;HPM_P2
2023/10/13 00:02:13;;;;;;;9.85;8.75;;;18.20;99.90;;;;;;5043922;27;20021;-36
2023/10/13 00:04:39;;;;;;;10.43;9.32;;;18.10;99.90;;;;;;5088526;27;20023;-37
2023/10/13 00:07:09;;;;;;;9.00;8.10;;;18.20;99.90;;;;;;5148292;27;20049;-36
2023/10/13 00:09:37;;;;;;;9.18;8.35;;;18.20;99.90;;;;;;5082965;27;20029;-34
2023/10/13 00:12:13;;;;;;;9.13;8.27;;;18.20;99.90;;;;;;5148584;27;20031;-37
2023/10/13 00:14:44;;;;;;;9.15;7.93;;;18.10;99.90;;;;;;5082388;27;20179;-36
2023/10/13 00:17:19;;;;;;;6.88;6.15;;;18.10;99.90;;;;;;5148773;27;20625;-37
2023/10/13 00:19:46;;;;;;;7.45;6.47;;;18.20;99.90;;;;;;5082649;27;20472;-35
2023/10/13 00:22:15;;;;;;;9.23;7.15;;;18.20;99.90;;;;;;5147891;27;20018;-35
2023/10/13 00:24:42;;;;;;;9.43;7.03;;;18.20;99.90;;;;;;5092035;27;20037;-36
2023/10/13 00:27:33;;;;;;;8.32;7.50;;;18.20;99.90;;;;;;5141169;27;20011;-36
2023/10/13 00:30:22;;;;;;;7.85;7.05;;;18.20;99.90;;;;;;5086824;27;20029;-35
2023/10/13 00:32:56;;;;;;;6.18;5.57;;;18.20;99.90;;;;;;5024792;28;20028;-36
2023/10/13 00:35:29;;;;;;;7.85;7.15;;;18.20;99.90;;;;;;5106833;27;20095;-37
2023/10/13 00:38:05;;;;;;;7.90;6.10;;;18.20;99.90;;;;;;5043423;28;20029;-35
2023/10/13 00:45:45;;;;;;;7.18;6.57;;;18.20;99.90;;;;;;5109487;27;20362;-37
2023/10/13 00:48:14;;;;;;;10.40;7.28;;;18.20;99.90;;;;;;5043087;28;20025;-36
2023/10/13 00:50:41;;;;;;;8.30;5.97;;;18.20;99.90;;;;;;5068696;27;20032;-36
2023/10/13 00:53:08;;;;;;;8.35;6.40;;;18.20;99.90;;;;;;5042432;28;20068;-36
2023/10/13 00:55:34;;;;;;;6.78;6.18;;;18.20;99.90;;;;;;5065307;27;20145;-37
2023/10/13 00:58:03;;;;;;;7.28;6.30;;;18.20;99.90;;;;;;5133523;27;20112;-36
2023/10/13 01:00:29;;;;;;;8.07;7.28;;;18.20;99.90;;;;;;5109662;27;20021;-34
2023/10/13 01:02:56;;;;;;;8.43;7.53;;;18.10;99.90;;;;;;5121543;27;20019;-35
2023/10/13 01:05:23;;;;;;;7.40;6.70;;;18.10;99.90;;;;;;5121422;27;20053;-36
2023/10/13 01:07:52;;;;;;;8.75;7.38;;;18.10;99.90;;;;;;5109686;27;20030;-36
2023/10/13 01:10:19;;;;;;;7.07;6.38;;;18.10;99.90;;;;;;5131403;27;20105;-36
2023/10/13 01:12:47;;;;;;;6.85;5.97;;;18.10;99.90;;;;;;5099606;27;20019;-37
2023/10/13 01:15:17;;;;;;;6.20;5.60;;;18.10;99.90;;;;;;5076740;27;20348;-35
2023/10/13 01:17:46;;;;;;;7.63;6.82;;;18.20;99.90;;;;;;5078973;27;20031;-36
2023/10/13 01:20:20;;;;;;;7.50;6.80;;;18.20;99.90;;;;;;5139826;27;20128;-35
2023/10/13 01:22:55;;;;;;;7.60;6.07;;;18.20;99.90;;;;;;5090150;27;20023;-35
2023/10/13 01:25:27;;;;;;;8.35;6.43;;;18.20;99.90;;;;;;5140067;27;20075;-35
2023/10/13 01:27:54;;;;;;;7.40;6.63;;;18.10;99.90;;;;;;5089653;27;20030;-37
2023/10/13 01:30:24;;;;;;;6.32;5.72;;;18.20;99.90;;;;;;5141097;27;20015;-36
2023/10/13 01:32:51;;;;;;;6.43;5.82;;;18.20;99.90;;;;;;5097888;27;20524;-35
2023/10/13 01:35:25;;;;;;;6.05;5.47;;;18.20;99.90;;;;;;5042964;28;20862;-36
2023/10/13 01:37:51;;;;;;;6.78;5.60;;;18.20;99.90;;;;;;5084716;27;20023;-37
2023/10/13 01:40:20;;;;;;;6.97;5.65;;;18.20;99.90;;;;;;5147529;27;20557;-37
2023/10/13 01:42:46;;;;;;;5.65;5.15;;;18.20;99.90;;;;;;5081848;27;20831;-37
2023/10/13 01:45:14;;;;;;;5.90;5.22;;;18.20;99.90;;;;;;5146528;27;20049;-38
2023/10/13 01:47:41;;;;;;;6.75;5.40;;;18.20;99.90;;;;;;5082546;27;20045;-36
2023/10/13 01:50:15;;;;;;;7.07;5.43;;;18.20;99.90;;;;;;5031435;27;20721;-36
2023/10/13 01:52:41;;;;;;;8.68;5.80;;;18.20;99.90;;;;;;5088168;27;20021;-36
2023/10/13 01:55:10;;;;;;;6.13;5.32;;;18.20;99.90;;;;;;5140966;27;20034;-35
2023/10/13 01:57:35;;;;;;;5.05;4.57;;;18.20;99.90;;;;;;5100361;27;20024;-36
2023/10/13 02:00:18;;;;;;;8.23;4.93;;;18.20;99.90;;;;;;5127920;27;20035;-36
2023/10/13 02:02:45;;;;;;;;;;;18.20;99.90;;;;;;5101609;27;20124;-36
2023/10/13 02:05:11;;;;;;;4.78;4.35;;;18.10;99.90;;;;;;5127387;27;19964;-36
2023/10/13 02:07:38;;;;;;;4.70;4.30;;;18.10;99.90;;;;;;5112982;27;20036;-36
2023/10/13 02:10:05;;;;;;;4.35;3.92;;;18.10;99.90;;;;;;5114900;27;20207;-36
2023/10/13 02:12:42;;;;;;;5.13;4.47;;;18.20;99.90;;;;;;5125994;27;20052;-36
2023/10/13 02:15:12;;;;;;;5.55;4.90;;;18.10;99.90;;;;;;5109956;27;20030;-36
2023/10/13 02:17:41;;;;;;;6.18;5.57;;;18.10;99.90;;;;;;5127784;27;20014;-36
2023/10/13 02:20:14;;;;;;;6.28;5.20;;;18.10;99.90;;;;;;5101579;27;20389;-36
2023/10/13 02:22:48;;;;;;;5.40;4.90;;;18.10;99.90;;;;;;5134267;27;20374;-45
2023/10/13 02:25:35;;;;;;;5.75;4.85;;;18.20;99.90;;;;;;5099744;27;20031;-38
2023/10/13 02:28:01;;;;;;;5.03;4.53;;;18.10;99.90;;;;;;5049091;27;20028;-38
2023/10/13 02:30:27;;;;;;;5.15;4.65;;;18.10;99.90;;;;;;5087401;27;20033;-36
2023/10/13 02:32:55;;;;;;;4.75;4.22;;;18.10;99.90;;;;;;5049179;27;20048;-35
2023/10/13 02:35:29;;;;;;;4.95;4.05;;;18.10;99.90;;;;;;5077734;27;20057;-35
2023/10/13 02:38:05;;;;;;;4.18;3.78;;;18.10;99.90;;;;;;5139293;27;20017;-35
2023/10/13 02:40:35;;;;;;;4.65;4.15;;;18.00;99.90;;;;;;5078888;27;20026;-35
2023/10/13 02:43:01;;;;;;;5.40;4.10;;;18.10;99.90;;;;;;5137592;27;20017;-37
2023/10/13 02:45:26;;;;;;;4.82;4.43;;;18.10;99.90;;;;;;5087462;27;20781;-36
2023/10/13 02:48:10;;;;;;;4.28;3.88;;;18.10;99.90;;;;;;5142675;27;20038;-35
2023/10/13 02:50:38;;;;;;;4.07;3.38;;;18.10;99.90;;;;;;5123380;27;20832;-36
2023/10/13 02:53:12;;;;;;;3.30;3.00;;;18.10;99.90;;;;;;5141519;27;20393;-35
2023/10/13 02:55:39;;;;;;;5.57;3.67;;;18.10;99.90;;;;;;5087193;27;20442;-35
2023/10/13 02:58:04;;;;;;;4.25;3.33;;;18.10;99.90;;;;;;5146058;27;20102;-35
2023/10/13 03:00:31;;;;;;;3.85;3.47;;;18.10;99.90;;;;;;5080602;27;20459;-35
2023/10/13 03:03:01;;;;;;;5.63;3.58;;;18.10;99.90;;;;;;5145184;27;20418;-36
2023/10/13 03:05:29;;;;;;;3.65;3.10;;;18.10;99.90;;;;;;5079908;27;20081;-36
2023/10/13 03:07:56;;;;;;;3.10;2.80;;;18.10;99.90;;;;;;5144827;27;20086;-35
2023/10/13 03:10:28;;;;;;;3.58;3.22;;;18.00;99.90;;;;;;5082691;27;20032;-36
2023/10/13 03:12:54;;;;;;;4.20;2.95;;;18.10;99.90;;;;;;5022079;28;20094;-38
2023/10/13 03:15:23;;;;;;;3.67;2.83;;;18.00;99.90;;;;;;5088223;27;20018;-37
2023/10/13 03:17:48;;;;;;;3.38;3.10;;;18.10;99.90;;;;;;5050204;27;20379;-35
2023/10/13 03:20:22;;;;;;;5.03;3.78;;;18.10;99.90;;;;;;5082962;27;20804;-36
2023/10/13 03:22:52;;;;;;;4.90;3.10;;;18.00;99.90;;;;;;5058932;27;20022;-36
2023/10/13 03:25:28;;;;;;;3.58;3.13;;;18.10;99.90;;;;;;5076462;27;20030;-35
2023/10/13 03:30:35;;;;;;;5.00;3.15;;;18.10;99.90;;;;;;5073272;27;20031;-36
2023/10/13 03:33:25;;;;;;;5.22;2.63;;;18.10;99.90;;;;;;5064041;27;20503;-36
2023/10/13 03:35:54;;;;;;;2.70;2.45;;;18.10;99.90;;;;;;5086136;27;20141;-35
2023/10/13 03:38:20;;;;;;;3.13;2.83;;;18.10;99.90;;;;;;5057697;27;20028;-38
2023/10/13 03:41:30;;;;;;;4.00;2.90;;;18.10;99.90;;;;;;5075608;27;20129;-36
2023/10/13 03:43:45;;;;;;;7.25;2.60;;;18.10;99.90;;;;;;5034085;28;20106;-38
2023/10/13 03:46:11;;;;;;;3.50;2.30;;;18.10;99.90;;;;;;5077667;27;20026;-37
2023/10/13 03:48:52;;;;;;;4.20;3.05;;;18.10;99.90;;;;;;5061104;27;20377;-37
2023/10/13 03:51:18;;;;;;;3.55;2.80;;;18.10;99.90;;;;;;5098631;27;20106;-37
2023/10/13 03:53:52;;;;;;;3.80;3.03;;;18.10;99.90;;;;;;5047148;27;20128;-36
2023/10/13 03:56:28;;;;;;;4.30;3.03;;;18.00;99.90;;;;;;5075308;27;20493;-36
2023/10/13 03:59:06;;;;;;;4.53;3.40;;;18.10;99.90;;;;;;5062686;27;20025;-34
2023/10/13 04:01:34;;;;;;;4.68;3.55;;;18.00;99.90;;;;;;5078763;27;20050;-36
2023/10/13 04:04:29;;;;;;;5.25;4.18;;;18.00;99.90;;;;;;5065725;27;20043;-35
2023/10/13 04:08:44;;;;;;;4.35;3.55;;;18.00;99.90;;;;;;5087439;27;20034;-35
2023/10/13 04:17:40;;;;;;;4.85;4.28;;;18.00;99.90;;;;;;5099238;27;20053;-36
2023/10/13 04:28:14;;;;;;;3.75;3.20;;;18.00;99.90;;;;;;5103579;27;20118;-36
2023/10/13 04:41:37;;;;;;;4.85;4.15;;;18.00;99.90;;;;;;5148814;27;20060;-35
2023/10/13 04:49:35;;;;;;;5.95;4.22;;;18.00;99.90;;;;;;5099175;27;20072;-38
2023/10/13 04:54:49;;;;;;;8.23;4.75;;;18.10;99.90;;;;;;5099455;27;20462;-37
2023/10/13 06:29:36;;;;;;;3.60;3.30;;;18.70;99.90;;;;;;5022876;28;20408;-36
2023/10/13 06:32:01;;;;;;;4.22;3.85;;;18.70;99.90;;;;;;5093176;27;20027;-34
2023/10/13 06:34:37;;;;;;;4.97;4.07;;;18.80;99.90;;;;;;5046647;27;20025;-35
2023/10/13 06:37:22;;;;;;;4.20;3.85;;;18.80;99.90;;;;;;5092264;27;20062;-36
2023/10/13 06:39:56;;;;;;;4.03;3.13;;;18.80;99.90;;;;;;5021227;28;20120;-36
2023/10/13 06:42:28;;;;;;;3.80;3.33;;;18.80;99.90;;;;;;5093925;27;20031;-36
2023/10/13 06:44:58;;;;;;;3.30;2.80;;;18.90;99.90;;;;;;5043212;27;20503;-35
2023/10/13 06:47:24;;;;;;;3.75;3.35;;;18.90;99.90;;;;;;5091962;27;20177;-36
2023/10/13 06:49:51;;;;;;;5.68;3.33;;;18.90;99.90;;;;;;5052884;27;20514;-34
2023/10/13 06:52:22;;;;;;;3.10;2.80;;;18.90;99.90;;;;;;5083445;27;20046;-36
2023/10/13 06:54:50;;;;;;;3.75;3.05;;;18.90;99.90;;;;;;5124145;27;20023;-36
2023/10/13 06:57:20;;;;;;;3.00;2.70;;;18.90;99.90;;;;;;5114197;27;20744;-36
2023/10/13 06:59:46;;;;;;;3.25;2.63;;;18.90;99.90;;;;;;5027349;27;20025;-36
2023/10/13 07:02:21;;;;;;;2.80;2.50;;;18.90;99.90;;;;;;5049576;27;20055;-36
2023/10/13 07:05:03;;;;;;;4.45;3.10;;;18.90;99.90;;;;;;5078119;27;20033;-37
2023/10/13 07:07:30;;;;;;;;;;;18.90;99.90;;;;;;5068086;27;20031;-35
2023/10/13 07:09:55;;;;;;;4.15;2.67;;;18.90;99.90;;;;;;5064771;27;19906;-35
2023/10/13 07:12:33;;;;;;;3.53;3.22;;;18.90;99.90;;;;;;5040565;27;20032;-37
2023/10/13 07:15:10;;;;;;;2.92;2.60;;;18.90;99.90;;;;;;5085004;27;20025;-36
2023/10/13 07:17:40;;;;;;;3.47;3.05;;;19.00;99.90;;;;;;5057297;27;20044;-41
2023/10/13 07:20:34;;;;;;;4.15;3.20;;;19.00;99.90;;;;;;5086409;27;20120;-35
2023/10/13 07:23:03;;;;;;;6.68;3.50;;;19.00;99.90;;;;;;5065704;27;20015;-35
2023/10/13 07:25:33;;;;;;;4.40;3.28;;;19.00;99.90;;;;;;5078084;27;20360;-36
2023/10/13 07:28:08;;;;;;;5.63;3.45;;;19.00;99.90;;;;;;5059022;27;20099;-35
2023/10/13 07:31:08;;;;;;;5.45;3.28;;;19.00;99.90;;;;;;5082181;27;20029;-36
2023/10/13 07:33:34;;;;;;;4.07;3.17;;;19.00;99.90;;;;;;5078033;27;20110;-36
2023/10/13 07:36:16;;;;;;;5.50;2.90;;;19.00;99.90;;;;;;5070116;27;20217;-36
2023/10/13 07:38:49;;;;;;;4.07;2.90;;;19.00;99.90;;;;;;5074891;27;20010;-36
2023/10/13 07:41:21;;;;;;;4.38;3.10;;;19.00;99.90;;;;;;5139227;27;20034;-36
2023/10/13 07:43:48;;;;;;;6.47;3.35;;;19.00;99.90;;;;;;5114340;27;20496;-36
2023/10/13 07:46:14;;;;;;;3.72;2.88;;;19.00;99.90;;;;;;5111492;27;20042;-36
2023/10/13 07:48:40;;;;;;;4.57;3.40;;;19.10;99.90;;;;;;5125853;27;20019;-35
2023/10/13 07:51:15;;;;;;;8.50;4.05;;;19.00;99.90;;;;;;5069429;27;20488;-36
2023/10/13 07:53:43;;;;;;;4.45;3.88;;;19.00;99.90;;;;;;5051927;27;20042;-35
2023/10/13 07:56:11;;;;;;;6.25;3.90;;;19.00;99.90;;;;;;5092998;27;20101;-36
2023/10/13 08:01:26;;;;;;;7.63;4.07;;;19.10;99.90;;;;;;5089042;27;20057;-35
2023/10/13 08:04:11;;;;;;;4.78;3.40;;;19.10;99.90;;;;;;5142351;27;20018;-36
2023/10/13 08:06:37;;;;;;;5.50;3.38;;;19.10;99.90;;;;;;5091946;27;20073;-35
2023/10/13 08:11:48;;;;;;;5.88;3.95;;;19.20;99.90;;;;;;5093244;27;20548;-36
2023/10/13 08:14:23;;;;;;;7.13;4.07;;;19.20;99.90;;;;;;5141085;27;20050;-36
2023/10/13 08:19:39;;;;;;;5.40;3.45;;;19.30;99.90;;;;;;5042926;27;20029;-34
2023/10/13 08:37:56;;;;;;;8.23;4.35;;;19.60;99.90;;;;;;5097036;27;20040;-36
2023/10/13 08:40:43;;;;;;;8.60;4.15;;;19.60;99.90;;;;;;5058984;27;20049;-36
2023/10/13 08:43:11;;;;;;;7.50;4.82;;;19.60;99.90;;;;;;5076609;27;20049;-36
2023/10/13 08:50:52;;;;;;;7.18;3.45;;;19.80;99.90;;;;;;5052959;27;20036;-36
2023/10/13 08:53:31;;;;;;;5.80;3.63;;;19.80;99.90;;;;;;5042870;28;20517;-35
2023/10/13 09:01:48;;;;;;;8.05;4.07;;;20.00;99.90;;;;;;5118199;27;20451;-35
2023/10/13 09:07:00;;;;;;;6.88;4.30;;;20.00;99.90;;;;;;5109477;27;20073;-36
2023/10/13 09:18:12;;;;;;;6.75;4.78;;;20.30;99.90;;;;;;5105054;27;20038;-35
2023/10/13 09:23:13;;;;;;;7.80;4.03;;;20.30;99.90;;;;;;5105829;27;20023;-36
2023/10/13 09:25:58;;;;;;;8.18;4.35;;;20.40;99.90;;;;;;5043017;28;20029;-34
2023/10/13 09:28:27;;;;;;;9.05;3.92;;;20.40;99.90;;;;;;5107789;27;20045;-35
2023/10/13 09:30:56;;;;;;;4.45;3.50;;;20.40;99.90;;;;;;5140477;27;20022;-35
2023/10/13 09:33:32;;;;;;;7.65;4.30;;;20.50;99.90;;;;;;5081759;27;20029;-34
2023/10/13 09:35:59;;;;;;;8.80;4.00;;;20.40;99.90;;;;;;5146814;27;20423;-36
2023/10/13 09:38:28;;;;;;;6.25;4.07;;;20.40;99.90;;;;;;5081953;27;20093;-35
2023/10/13 09:41:25;;;;;;;8.25;3.85;;;20.40;99.90;;;;;;5148719;27;20041;-36
2023/10/13 09:43:52;;;;;;;7.72;4.45;;;20.40;99.90;;;;;;5112972;27;20121;-35
2023/10/13 09:46:30;;;;;;;7.35;4.38;;;20.40;99.90;;;;;;5043162;28;20037;-35
2023/10/13 09:49:14;;;;;;;12.68;4.60;;;20.40;99.90;;;;;;5109089;27;20030;-34
2023/10/13 09:51:45;;;;;;;9.73;5.43;;;20.40;99.90;;;;;;5088129;27;20081;-35
2023/10/13 09:54:26;;;;;;;6.82;4.07;;;20.40;99.90;;;;;;5080387;27;20025;-36
2023/10/13 09:57:24;;;;;;;6.43;3.63;;;20.40;99.90;;;;;;5148363;27;20043;-35
2023/10/13 09:59:56;;;;;;;7.00;3.88;;;20.50;99.90;;;;;;5099053;27;20271;-37
2023/10/13 10:02:25;;;;;;;10.73;3.95;;;20.60;99.90;;;;;;5045335;27;20483;-36
2023/10/13 10:04:52;;;;;;;7.40;4.05;;;20.60;99.90;;;;;;5101754;27;20104;-36
2023/10/13 10:07:28;;;;;;;6.88;3.92;;;20.60;99.90;;;;;;5042322;28;20029;-36
2023/10/13 10:09:58;;;;;;;8.00;4.30;;;20.60;99.90;;;;;;5107636;27;20017;-36
2023/10/13 10:12:50;;;;;;;6.65;4.30;;;20.60;99.90;;;;;;5041912;28;20033;-34
2023/10/13 10:15:43;;;;;;;6.25;3.72;;;20.60;99.90;;;;;;5097107;27;20496;-35
2023/10/13 10:18:25;;;;;;;8.55;5.40;;;20.70;99.90;;;;;;5048761;27;20024;-36
2023/10/13 10:20:52;;;;;;;9.45;5.00;;;20.70;99.90;;;;;;5031537;28;20036;-35
2023/10/13 10:23:43;;;;;;;6.15;4.40;;;20.80;99.90;;;;;;5048959;27;20029;-35
2023/10/13 10:26:19;;;;;;;7.72;4.00;;;20.70;99.90;;;;;;5082898;27;20037;-36
2023/10/13 10:28:46;;;;;;;9.82;4.57;;;20.80;99.90;;;;;;5139612;27;20011;-37
2023/10/13 10:31:19;;;;;;;9.35;4.78;;;20.80;99.90;;;;;;5076389;27;20539;-34
2023/10/13 10:33:50;;;;;;;7.53;4.35;;;20.80;99.90;;;;;;5121827;27;20041;-35
2023/10/13 10:36:27;;;;;;;9.00;4.50;;;20.80;99.90;;;;;;5087687;27;20545;-35
2023/10/13 10:38:58;;;;;;;6.85;4.45;;;20.90;99.90;;;;;;5140423;27;20100;-35
2023/10/13 10:42:15;;;;;;;12.13;4.55;;;20.90;99.90;;;;;;5087553;27;20030;-36
2023/10/13 10:44:37;;;;;;;6.13;3.67;;;20.90;99.90;;;;;;5135088;27;20163;-34
2023/10/13 10:50:07;;;;;;;7.50;4.28;;;21.00;99.90;;;;;;5116670;27;20033;-35
2023/10/13 10:52:37;;;;;;;8.57;4.80;;;21.10;99.90;;;;;;5121683;27;20035;-36
2023/10/13 10:55:07;;;;;;;7.50;4.15;;;21.20;99.90;;;;;;5123772;27;20019;-36
2023/10/13 10:57:37;;;;;;;10.07;4.28;;;21.20;99.90;;;;;;5080084;27;20033;-35
2023/10/13 11:00:11;;;;;;;10.05;5.15;;;21.20;99.90;;;;;;5058158;27;20438;-35
2023/10/13 11:02:40;;;;;;;6.18;4.38;;;21.20;99.90;;;;;;5082818;27;20395;-35
2023/10/13 11:05:09;;;;;;;6.43;3.58;;;21.30;99.90;;;;;;5052087;27;20025;-35
2023/10/13 11:07:50;;;;;;;7.20;3.83;;;21.30;99.90;;;;;;5091904;27;20033;-35
2023/10/13 11:10:30;;;;;;;10.70;5.00;;;21.30;99.90;;;;;;5052565;27;20913;-36
2023/10/13 11:13:21;;;;;;;7.93;4.70;;;21.40;99.90;;;;;;5084469;27;20049;-36
2023/10/13 11:15:48;;;;;;;7.22;4.60;;;21.50;99.90;;;;;;5066562;27;20018;-36
2023/10/13 11:18:23;;;;;;;9.43;4.43;;;21.50;99.90;;;;;;5079064;27;20117;-34
2023/10/13 11:20:53;;;;;;;9.50;4.88;;;21.50;99.90;;;;;;5061115;27;20036;-34
2023/10/13 11:23:25;;;;;;;8.85;4.50;;;21.60;99.90;;;;;;5082050;27;20249;-35
2023/10/13 11:25:59;;;;;;;7.38;4.85;;;21.50;99.90;;;;;;5055556;27;20529;-36
2023/10/13 11:28:27;;;;;;;8.20;5.10;;;21.60;99.90;;;;;;5086737;27;20033;-34
2023/10/13 11:30:58;;;;;;;7.55;4.68;;;21.50;99.90;;;;;;5049193;27;20021;-35
2023/10/13 11:33:26;;;;;;;7.57;5.28;;;21.50;99.90;;;;;;5094571;27;20129;-35
2023/10/13 11:38:27;;;;;;;11.23;5.30;;;21.50;99.90;;;;;;5099561;27;20040;-35
2023/10/13 11:46:50;;;;;;;13.05;6.47;;;21.60;99.90;;;;;;5047038;27;20034;-36
2023/10/13 11:51:45;;;;;;;10.20;6.35;;;21.70;99.90;;;;;;5120877;27;20032;-35
2023/10/13 11:54:15;;;;;;;8.13;5.32;;;21.70;99.90;;;;;;5090650;27;20036;-35
2023/10/13 11:56:41;;;;;;;11.75;5.72;;;21.70;99.90;;;;;;5047218;27;20622;-35
2023/10/13 11:59:15;;;;;;;8.95;5.68;;;21.70;99.90;;;;;;5098470;27;20067;-35
2023/10/13 12:07:17;;;;;;;9.07;4.80;;;21.80;99.90;;;;;;5132412;27;20088;-35
2023/10/13 12:12:26;;;;;;;7.55;5.05;;;21.90;99.90;;;;;;5132813;27;20777;-35
2023/10/13 12:14:52;;;;;;;10.93;4.80;;;21.90;99.90;;;;;;5095519;27;20019;-36
2023/10/13 12:17:24;;;;;;;9.52;5.07;;;22.00;99.90;;;;;;5137926;27;20017;-35
2023/10/13 12:19:52;;;;;;;9.73;4.72;;;22.10;99.90;;;;;;5086358;27;20031;-37
2023/10/13 12:22:26;;;;;;;11.48;5.90;;;22.10;99.90;;;;;;5138214;27;20015;-36
2023/10/13 12:24:55;;;;;;;11.98;5.20;;;22.20;99.90;;;;;;5086537;27;20026;-36
2023/10/13 12:27:23;;;;;;;10.45;5.90;;;22.20;99.90;;;;;;5137639;27;20023;-36
2023/10/13 12:29:51;;;;;;;11.00;5.20;;;22.20;99.90;;;;;;5087164;27;20026;-37
2023/10/13 12:32:30;;;;;;;9.90;5.45;;;22.20;99.90;;;;;;5143816;27;20034;-36
2023/10/13 12:51:19;;;;;;;8.88;4.95;;;22.50;99.90;;;;;;5081429;27;20042;-36
2023/10/13 12:53:47;;;;;;;5.80;4.55;;;22.50;99.90;;;;;;5055235;27;20536;-35
2023/10/13 12:56:25;;;;;;;9.13;4.93;;;22.50;99.90;;;;;;5093846;27;20040;-37
2023/10/13 12:58:52;;;;;;;8.02;4.95;;;22.40;99.90;;;;;;5052818;27;20073;-35
2023/10/13 13:01:27;;;;;;;9.75;5.10;;;22.40;99.90;;;;;;5097752;27;20097;-36
2023/10/13 13:03:55;;;;;;;9.38;5.05;;;22.40;99.90;;;;;;5049992;27;20029;-36
2023/10/13 13:06:26;;;;;;;10.20;5.07;;;22.40;99.90;;;;;;5101104;27;20377;-35
2023/10/13 13:08:55;;;;;;;11.52;4.82;;;22.40;99.90;;;;;;5049531;27;20387;-35
2023/10/13 13:11:21;;;;;;;9.20;4.93;;;22.40;99.90;;;;;;5101063;27;20585;-36
2023/10/13 13:13:47;;;;;;;9.95;5.20;;;22.40;99.90;;;;;;5045998;27;20056;-36
2023/10/13 13:16:23;;;;;;;9.02;5.20;;;22.40;99.90;;;;;;5103221;27;20116;-34
2023/10/13 13:18:49;;;;;;;7.30;4.63;;;22.40;99.90;;;;;;5043307;28;20025;-36
2023/10/13 13:21:23;;;;;;;7.60;4.45;;;22.40;99.90;;;;;;5106747;27;20082;-36
2023/10/13 13:23:49;;;;;;;7.10;4.47;;;22.40;99.90;;;;;;5043295;28;20077;-35
2023/10/13 13:26:18;;;;;;;10.15;4.80;;;22.40;99.90;;;;;;5108633;27;20754;-36
2023/10/13 13:28:50;;;;;;;9.07;5.15;;;22.40;99.90;;;;;;5043053;28;20025;-35
2023/10/13 13:31:25;;;;;;;11.63;5.40;;;22.40;99.90;;;;;;5108783;27;20068;-35
2023/10/13 13:33:50;;;;;;;11.35;5.40;;;22.40;99.90;;;;;;5043140;28;20030;-35
2023/10/13 13:36:16;;;;;;;8.38;4.78;;;22.40;99.90;;;;;;5103149;27;20241;-37
2023/10/13 13:38:46;;;;;;;9.48;4.90;;;22.30;99.90;;;;;;5046485;27;20141;-36
2023/10/13 13:41:16;;;;;;;9.95;5.32;;;22.30;99.90;;;;;;5093076;27;20505;-36
2023/10/13 13:43:54;;;;;;;7.40;4.63;;;22.30;99.90;;;;;;5053020;27;20029;-36
2023/10/13 13:46:24;;;;;;;6.07;4.03;;;22.30;99.90;;;;;;5091068;27;20362;-35
2023/10/13 13:48:51;;;;;;;8.68;4.88;;;22.30;99.90;;;;;;5055077;27;20078;-38
2023/10/13 13:51:27;;;;;;;8.32;4.47;;;22.30;99.90;;;;;;5068051;27;20027;-36
2023/10/13 13:53:54;;;;;;;9.05;4.63;;;22.20;99.90;;;;;;5042155;28;20028;-35
2023/10/13 13:56:19;;;;;;;9.20;5.38;;;22.10;99.90;;;;;;5075168;27;20118;-37
2023/10/13 13:58:46;;;;;;;10.07;5.00;;;22.10;99.90;;;;;;5073138;27;20033;-35
2023/10/13 14:01:15;;;;;;;12.82;4.78;;;22.10;99.90;;;;;;5063308;27;20365;-37
2023/10/13 14:03:47;;;;;;;8.55;4.47;;;22.00;99.90;;;;;;5084188;27;20057;-36
2023/10/13 14:06:28;;;;;;;9.35;4.60;;;22.00;99.90;;;;;;5056290;27;20549;-38
2023/10/13 14:08:56;;;;;;;8.40;4.28;;;22.00;99.90;;;;;;5081791;27;20159;-37
2023/10/13 14:14:28;;;;;;;5.85;3.90;;;21.90;99.90;;;;;;5081998;27;20048;-37
2023/10/13 14:17:03;;;;;;;6.32;4.00;;;21.90;99.90;;;;;;5071190;27;20019;-35
2023/10/13 14:19:28;;;;;;;8.10;3.70;;;21.80;99.90;;;;;;5071550;27;20021;-36
2023/10/13 14:21:58;;;;;;;7.63;4.05;;;21.80;99.90;;;;;;5063823;27;20035;-36
2023/10/13 14:24:28;;;;;;;12.73;4.75;;;21.70;99.90;;;;;;5081809;27;20124;-36
2023/10/13 14:27:08;;;;;;;7.40;4.22;;;21.70;99.90;;;;;;5056118;27;20429;-37
2023/10/13 14:29:39;;;;;;;7.20;4.15;;;21.60;99.90;;;;;;5083069;27;20387;-36
2023/10/13 14:32:13;;;;;;;5.43;3.70;;;21.50;99.90;;;;;;5055772;27;20146;-37
2023/10/13 14:34:42;;;;;;;6.20;3.55;;;21.50;99.90;;;;;;5087196;27;20025;-37
2023/10/13 14:37:13;;;;;;;6.70;3.72;;;21.40;99.90;;;;;;5050555;27;20053;-37
2023/10/13 14:39:41;;;;;;;8.38;4.40;;;21.40;99.90;;;;;;5093832;27;20468;-35
2023/10/13 14:42:07;;;;;;;8.63;4.00;;;21.40;99.90;;;;;;5048098;27;20026;-36
2023/10/13 14:44:33;;;;;;;7.50;3.72;;;21.30;99.90;;;;;;5099956;27;20021;-35
2023/10/13 14:46:59;;;;;;;10.18;4.63;;;21.30;99.90;;;;;;5047704;27;20117;-35
2023/10/13 14:49:25;;;;;;;8.95;4.53;;;21.30;99.90;;;;;;5100491;27;20036;-35
2023/10/13 14:51:55;;;;;;;8.25;4.47;;;21.30;99.90;;;;;;5075144;27;20027;-35
2023/10/13 14:54:32;;;;;;;7.07;4.47;;;21.30;99.90;;;;;;5079419;27;20026;-35
2023/10/13 14:56:59;;;;;;;8.10;4.25;;;21.20;99.90;;;;;;5146077;27;20026;-36
2023/10/13 14:59:24;;;;;;;6.82;3.78;;;21.20;99.90;;;;;;5080015;27;20037;-36
2023/10/13 15:01:50;;;;;;;7.55;4.25;;;21.20;99.90;;;;;;5146044;27;20048;-35
2023/10/13 15:04:16;;;;;;;6.32;4.38;;;21.20;99.90;;;;;;5081555;27;20251;-35
2023/10/13 15:06:50;;;;;;;7.90;3.78;;;21.10;99.90;;;;;;5144128;27;20027;-35
2023/10/13 15:09:23;;;;;;;7.95;4.75;;;21.10;99.90;;;;;;5088447;27;20023;-37
2023/10/13 15:11:52;;;;;;;7.72;4.45;;;21.10;99.90;;;;;;5142912;27;20106;-37
2023/10/13 15:14:20;;;;;;;9.77;4.25;;;21.00;99.90;;;;;;5093936;27;20021;-35
2023/10/13 15:16:46;;;;;;;5.95;3.97;;;21.00;99.90;;;;;;5133221;27;20574;-36
2023/10/13 15:19:12;;;;;;;5.00;3.47;;;21.00;99.90;;;;;;5107028;27;20029;-36
2023/10/13 15:21:59;;;;;;;6.82;4.18;;;21.00;99.90;;;;;;5119315;27;20023;-35
2023/10/13 15:24:25;;;;;;;9.85;4.70;;;21.00;99.90;;;;;;5104592;27;20065;-36
2023/10/13 15:26:56;;;;;;;5.95;4.28;;;21.00;99.90;;;;;;5122014;27;20031;-35
2023/10/13 15:29:26;;;;;;;8.40;4.15;;;21.00;99.90;;;;;;5112662;27;20538;-35
2023/10/13 15:34:26;;;;;;;;;;;20.80;99.90;;;;;;5120312;27;20036;-35
2023/10/13 15:36:52;;;;;;;9.63;4.32;;;20.80;99.90;;;;;;5106774;27;19921;-36
2023/10/13 15:39:23;;;;;;;6.63;4.03;;;20.80;99.90;;;;;;5131424;27;20040;-36
2023/10/13 15:41:52;;;;;;;10.73;4.35;;;20.70;99.90;;;;;;5096642;27;20026;-36
2023/10/13 15:44:20;;;;;;;10.32;4.97;;;20.60;99.90;;;;;;5137965;27;20026;-35
2023/10/13 15:46:49;;;;;;;8.20;3.90;;;20.60;99.90;;;;;;5076263;27;20098;-36
2023/10/13 15:49:21;;;;;;;9.48;4.20;;;20.60;99.90;;;;;;5136279;27;20440;-35
2023/10/13 15:51:46;;;;;;;6.60;4.63;;;20.50;99.90;;;;;;5060539;27;20401;-36
2023/10/13 15:54:15;;;;;;;7.60;4.90;;;20.50;99.90;;;;;;5046343;27;20022;-35
2023/10/13 15:56:44;;;;;;;7.30;4.28;;;20.50;99.90;;;;;;5095516;27;20039;-35
2023/10/13 15:59:10;;;;;;;6.38;4.25;;;20.40;99.90;;;;;;5040685;28;20024;-36
2023/10/13 16:01:39;;;;;;;7.65;4.88;;;20.40;99.90;;;;;;5105854;27;20025;-35
2023/10/13 16:04:10;;;;;;;7.05;3.75;;;20.40;99.90;;;;;;5039489;28;20033;-35
2023/10/13 16:06:40;;;;;;;8.80;3.47;;;20.40;99.90;;;;;;5106890;27;20029;-36
2023/10/13 16:09:13;;;;;;;6.47;3.88;;;20.40;99.90;;;;;;5040451;28;20048;-36
2023/10/13 16:11:42;;;;;;;9.00;3.67;;;20.40;99.90;;;;;;5105633;27;20026;-36
2023/10/13 16:14:15;;;;;;;8.05;3.67;;;20.40;99.90;;;;;;5040482;28;20025;-36
2023/10/13 16:16:44;;;;;;;5.53;3.50;;;20.40;99.90;;;;;;5062586;27;20036;-35
2023/10/13 16:19:10;;;;;;;6.90;4.10;;;20.40;99.90;;;;;;5019972;28;20029;-36
2023/10/13 16:21:39;;;;;;;5.93;3.70;;;20.40;99.90;;;;;;5089231;27;20027;-36
2023/10/13 16:24:05;;;;;;;9.57;4.55;;;20.40;99.90;;;;;;5051584;27;20788;-35
2023/10/13 16:26:31;;;;;;;7.75;4.55;;;20.40;99.90;;;;;;5086408;27;20121;-36
2023/10/13 16:28:58;;;;;;;5.50;4.32;;;20.40;99.90;;;;;;5067028;27;20169;-36
2023/10/13 16:31:27;;;;;;;9.77;5.10;;;20.50;99.90;;;;;;5065558;27;20497;-35
2023/10/13 16:33:59;;;;;;;5.25;4.15;;;20.50;99.90;;;;;;5116628;27;20034;-36
2023/10/13 16:36:25;;;;;;;6.57;4.50;;;20.50;99.90;;;;;;5126186;27;20056;-36
2023/10/13 16:38:51;;;;;;;8.07;4.70;;;20.50;99.90;;;;;;5106682;27;20382;-36
2023/10/13 16:41:16;;;;;;;9.13;5.05;;;20.60;99.90;;;;;;5138454;27;20023;-35
2023/10/13 16:43:42;;;;;;;7.78;4.10;;;20.60;99.90;;;;;;5092394;27;20023;-34
2023/10/13 16:46:11;;;;;;;9.02;3.97;;;20.60;99.90;;;;;;5140296;27;20400;-37
2023/10/13 16:48:41;;;;;;;6.88;4.38;;;20.60;99.90;;;;;;5110459;27;20040;-35
2023/10/13 16:51:13;;;;;;;8.13;4.60;;;20.60;99.90;;;;;;5045653;27;20036;-35
2023/10/13 16:53:40;;;;;;;;;;;20.60;99.90;;;;;;5089097;27;20029;-36
2023/10/13 16:56:07;;;;;;;9.40;4.53;;;20.60;99.90;;;;;;5147349;27;19993;-36
2023/10/13 16:58:33;;;;;;;7.07;3.88;;;20.70;99.90;;;;;;5082411;27;20071;-36